Terminal Aerodrome Forecast
Issued by NWS

Home | Current Version | Previous Version | Text Only | Print | Product List | Glossary On
Versions: 1 2 3 4 5 6 7 8 9 10 11 12 13 14 15 16 17 18 19 20 21 22 23 24 25 26
000
FTUS43 KPAH 150440 AAA
TAFCGI
TAF AMD
KCGI 150440Z 1505/1524 36005KT 4SM -DZ BKN008
     FM150700 03004KT 2SM -DZ BR OVC003
     FM151400 04005KT 5SM -RA BR OVC008
     FM151900 05006KT P6SM OVC008=

USA.gov is the U.S. government's official web portal to all federal, state and local government web resources and services.